WIIIWADD

Guest
Details From WIII - Jakarta Sukarno-Hatta Intl
To WADD - Denpasar Ngurah Rai Intl
Flight Number -
Tags decoded
Created
Modified
Stats Distance 531 nm / 983 km
Max Altitude 0 ft / 0 m
Waypoints 2
Social Downloads 0
Likes 0
Share VATSIM

Download

Looking for another format? Having issues loading an existing format? Contact us
Advertisement - Login to hide

Notes

Requested: WIII WADD

Route

WIII WADD

ID Type Via Altitude Latitude Longitude Leg Dist Tot Dist Heading (true) Name
O WIII APT - 0 ft / 0 m -6.12574˚ 106.65640˚ - 0 nm - Jakarta Sukarno-Hatta Intl
O WADD APT - 0 ft / 0 m -8.74817˚ 115.16717˚ 530 nm 530 nm 108° / 107° Denpasar Ngurah Rai Intl

Altitude Profile

Advertisement - Login to hide

Weather


0- 5 10 15 20 25 30 35+ Temperature / ° C

Clouds and Precipitation
Forecast for 2017-12-16 12:00 UTC. Updated 10 minutes ago

Ground ~20,000 ft ~40,000 ft Winds

WIII

Details ICAO WIII (CGK)
Name Jakarta Sukarno-Hatta Intl
Region Indonesia
Timezone Asia/Jakarta (UTC+7.0)
Stats Elevation 34 ft / 10 m (AMSL)
Location -6.125743° 106.656405°
Runways 2
Magnetic Variation 0.630° E

METAR

WIII 161130Z 18004KT 8000 SCT022 25/23 Q1010 NOSIG

Decode

TAF

TAF AMD WIII 160900Z 1609/1712 29012KT 9999 SCT022 TEMPO 1609/1612 3000 TSRA FEW018CB OVC020 FM161400 22005KT 5000 HZ SCT020 TEMPO 1618/1622 4000 RA FEW018CB BKN020 FM170300 29010KT 9999 SCT022

Decode

Departure Runways

ID Width Length Bearing (true) Bearing (mag) Surface Threshold Offset Overrun Length
07L 197 ft / 60 m 11,823 ft / 3,604 m 68.13° 67.50° Concrete 0 ft / 0 m 200 ft / 61 m
07R 197 ft / 60 m 12,024 ft / 3,665 m 68.12° 67.49° Concrete 0 ft / 0 m 200 ft / 61 m
25L 197 ft / 60 m 12,024 ft / 3,665 m 248.12° 247.49° Concrete 0 ft / 0 m 200 ft / 61 m
25R 197 ft / 60 m 11,823 ft / 3,604 m 248.12° 247.49° Concrete 0 ft / 0 m 200 ft / 61 m

WADD

Details ICAO WADD (DPS)
Name Denpasar Ngurah Rai Intl
Region Indonesia
Timezone Asia/Makassar (UTC+8.0)
Stats Elevation 14 ft / 4 m (AMSL)
Location -8.748169° 115.167174°
Runways 1
Magnetic Variation 1.055° E

METAR

WADD 161100Z 24003KT 200V270 9999 SCT016 29/25 Q1009 NOSIG

Decode

TAF

TAF WADD 160500Z 1606/1706 26010KT 9999 SCT016 TEMPO 1612/1616 5000 -TSRA FEW015CB BKN016 BECMG 1613/1615 VRB05KT BECMG 1623/1701 28010KT

Decode

Destination Runways

ID Width Length Bearing (true) Bearing (mag) Surface Threshold Offset Overrun Length
09 148 ft / 45 m 9,779 ft / 2,981 m 87.71° 86.65° Asphalt 121 ft / 37 m 75 ft / 23 m
27 148 ft / 45 m 9,779 ft / 2,981 m 267.70° 266.64° Asphalt 0 ft / 0 m 197 ft / 60 m

Approach Navaids

Runway Type Ident Frequency Range Bearing (true) Bearing (mag) Slope Elevation
27 Localiser IDPS 110.30 MHz 18 nm / 33 km 267.70° 266.65° - 10 ft / 3 m (AMSL)
27 Glidescope IDPS 110.30 MHz 10 nm / 19 km 267.70° 266.65° 3.00° 12 ft / 4 m (AMSL)
27 DME IDPS 110.30 MHz 18 nm / 33 km - - - 14 ft / 4 m (AMSL)

Popular Alternatives